Time;durP1;ratioP1;P1;durP2;ratioP2;P2;SDS_P1;SDS_P2;PMS_P1;PMS_P2;Temp;Humidity;BMP_temperature;BMP_pressure;BME280_temperature;BME280_humidity;BME280_pressure;Samples;Min_cycle;Max_cycle;Signal;HPM_P1;HPM_P2
2022/02/08 00:01:36;;;;;;;11.87;3.30;;;;;;;5.93;100.00;102271.72;4974900;28;20579;-71
2022/02/08 00:04:01;;;;;;;12.03;3.10;;;;;;;5.89;100.00;102262.25;4971846;28;20588;-71
2022/02/08 00:06:40;;;;;;;12.63;3.30;;;;;;;5.60;100.00;102231.00;4973570;28;20532;-71
2022/02/08 00:09:05;;;;;;;16.67;4.40;;;;;;;5.64;100.00;102264.38;4973369;28;20261;-71
2022/02/08 00:11:32;;;;;;;10.33;3.43;;;;;;;5.74;100.00;102279.56;4968851;28;20606;-71
2022/02/08 00:13:57;;;;;;;14.40;4.47;;;;;;;5.73;100.00;102229.94;4970452;28;20244;-71
2022/02/08 00:16:23;;;;;;;21.50;4.00;;;;;;;5.36;100.00;102182.56;4969641;28;20437;-71
2022/02/08 00:18:49;;;;;;;14.67;4.00;;;;;;;5.69;100.00;102258.66;4973198;28;20202;-71
2022/02/08 00:21:14;;;;;;;18.30;4.37;;;;;;;5.69;100.00;102233.84;4970669;28;20538;-71
2022/02/08 00:23:40;;;;;;;16.97;4.00;;;;;;;5.70;100.00;102268.34;4955796;28;20479;-71
2022/02/08 00:26:05;;;;;;;16.37;3.93;;;;;;;5.32;100.00;102176.66;4971585;28;20193;-71
2022/02/08 00:28:31;;;;;;;15.00;4.50;;;;;;;5.55;100.00;102259.81;4973400;28;20190;-71
2022/02/08 00:30:56;;;;;;;14.87;3.97;;;;;;;5.60;100.00;102270.94;4975751;28;20620;-71
2022/02/08 00:33:21;;;;;;;17.07;5.37;;;;;;;5.74;100.00;102263.59;4946835;28;20225;-71
2022/02/08 00:35:47;;;;;;;18.83;4.13;;;;;;;5.77;100.00;102247.34;4920608;28;20256;-71
2022/02/08 00:38:13;;;;;;;16.70;5.00;;;;;;;5.73;100.00;102267.19;4922846;28;20248;-71
2022/02/08 00:40:39;;;;;;;20.30;4.73;;;;;;;5.56;100.00;102210.13;4921531;28;20811;-71
2022/02/08 00:43:06;;;;;;;17.83;4.50;;;;;;;5.47;100.00;102209.09;4922634;28;20272;-71
2022/02/08 00:48:27;;;;;;;11.40;4.30;;;;;;;5.42;100.00;102238.75;4973514;28;20910;-71
2022/02/08 00:50:50;;;;;;;17.20;4.17;;;;;;;5.07;100.00;102161.94;4967055;28;20445;-71
2022/02/08 00:53:17;;;;;;;14.87;4.83;;;;;;;5.67;100.00;102252.63;4975639;28;20466;-71
2022/02/08 00:55:42;;;;;;;16.77;4.57;;;;;;;5.51;100.00;102241.59;4966562;28;20918;-71
2022/02/08 00:58:07;;;;;;;12.00;4.13;;;;;;;5.77;100.00;102258.00;4974249;28;20550;-71
2022/02/08 01:00:35;;;;;;;20.37;4.60;;;;;;;5.46;100.00;102182.59;4981103;28;20277;-71
2022/02/08 01:03:01;;;;;;;20.00;5.80;;;;;;;5.71;100.00;102247.88;4982102;28;20236;-71
2022/02/08 01:05:27;;;;;;;10.53;4.80;;;;;;;5.48;100.00;102189.47;4976417;28;20444;-71
2022/02/08 01:07:53;;;;;;;18.80;4.97;;;;;;;5.53;100.00;102186.44;4975719;28;20573;-71
2022/02/08 01:10:20;;;;;;;11.47;4.60;;;;;;;5.42;100.00;102172.22;4967956;28;20201;-71
2022/02/08 01:12:48;;;;;;;11.73;4.90;;;;;;;5.31;100.00;102159.00;4975045;28;20229;-71
2022/02/08 01:15:15;;;;;;;17.53;5.63;;;;;;;5.80;100.00;102247.06;4977090;28;20963;-71
2022/02/08 01:17:42;;;;;;;16.40;5.60;;;;;;;5.77;100.00;102234.03;4964657;28;20437;-71
2022/02/08 01:20:12;;;;;;;15.63;5.40;;;;;;;5.82;100.00;102248.63;4980515;28;20437;-71
2022/02/08 01:22:40;;;;;;;15.43;5.30;;;;;;;5.78;100.00;102241.03;4970597;28;20499;-72
2022/02/08 01:25:10;;;;;;;13.80;4.90;;;;;;;5.90;100.00;102245.28;4977918;28;20440;-71
2022/02/08 01:27:43;;;;;;;12.57;4.43;;;;;;;5.89;100.00;102247.09;4978050;28;20902;-71
2022/02/08 01:30:26;;;;;;;11.80;4.80;;;;;;;5.68;100.00;102211.72;4978075;28;20442;-72
2022/02/08 01:33:19;;;;;;;14.87;5.30;;;;;;;5.59;100.00;102186.72;4976556;28;20464;-71
2022/02/08 01:38:12;;;;;;;20.23;6.00;;;;;;;5.78;100.00;102201.09;4978163;28;20554;-71
2022/02/08 01:41:10;;;;;;;18.93;5.37;;;;;;;5.77;100.00;102231.38;4977363;28;21104;-71
2022/02/08 01:51:54;;;;;;;17.67;6.27;;;;;;;5.85;100.00;102207.59;4975076;28;20577;-71
2022/02/08 01:54:20;;;;;;;19.20;5.43;;;;;;;5.62;100.00;102196.28;4974031;28;20440;-71
2022/02/08 01:56:46;;;;;;;11.20;5.90;;;;;;;5.34;100.00;102137.44;4976781;28;20445;-71
2022/02/08 01:59:12;;;;;;;16.33;5.90;;;;;;;5.73;100.00;102197.97;4975647;28;20938;-71
2022/02/08 02:01:37;;;;;;;22.60;5.73;;;;;;;5.82;100.00;102187.38;4975476;28;20197;-71
2022/02/08 02:04:03;;;;;;;16.17;6.13;;;;;;;5.74;100.00;102173.06;4974269;28;20193;-71
2022/02/08 02:06:28;;;;;;;11.83;5.57;;;;;;;6.05;100.00;102220.03;4976037;28;20281;-71
2022/02/08 02:08:54;;;;;;;13.30;5.37;;;;;;;6.01;100.00;102212.44;4977017;28;20204;-71
2022/02/08 02:11:19;;;;;;;13.10;5.23;;;;;;;5.44;100.00;102122.38;4975933;28;20212;-71
2022/02/08 02:13:47;;;;;;;12.53;5.10;;;;;;;5.93;100.00;102215.78;4976143;28;21315;-72
2022/02/08 02:16:19;;;;;;;13.60;4.70;;;;;;;6.04;100.00;102207.66;4975404;28;20196;-71
2022/02/08 02:18:45;;;;;;;14.50;4.83;;;;;;;6.02;100.00;102198.16;4972735;28;20556;-71
2022/02/08 02:21:10;;;;;;;14.13;5.10;;;;;;;6.17;100.00;102204.78;4973050;28;20532;-72
2022/02/08 02:23:35;;;;;;;8.23;4.17;;;;;;;6.04;100.00;102169.53;4969028;28;20245;-72
2022/02/08 02:26:01;;;;;;;12.07;5.00;;;;;;;5.89;100.00;102129.94;4973926;28;20568;-71
2022/02/08 02:28:27;;;;;;;20.53;5.40;;;;;;;5.57;100.00;102122.13;4972661;28;20199;-71
2022/02/08 02:30:53;;;;;;;7.70;4.27;;;;;;;5.47;100.00;102068.06;4973648;28;20193;-71
2022/02/08 02:33:18;;;;;;;11.53;4.80;;;;;;;6.19;100.00;102160.19;4972324;28;20705;-71
2022/02/08 02:35:46;;;;;;;10.30;4.97;;;;;;;6.07;100.00;102140.78;4969846;28;20445;-72
2022/02/08 02:38:12;;;;;;;13.40;5.10;;;;;;;6.27;100.00;102155.00;4957214;28;20210;-71
2022/02/08 02:40:41;;;;;;;9.00;4.43;;;;;;;6.39;100.00;102169.03;4970236;28;20747;-71
2022/02/08 02:43:08;;;;;;;11.13;4.50;;;;;;;6.32;100.00;102162.59;4974961;28;20261;-71
2022/02/08 02:45:34;;;;;;;10.47;5.50;;;;;;;5.93;100.00;102084.38;4974569;28;20452;-71
2022/02/08 02:47:59;;;;;;;7.93;4.30;;;;;;;6.19;100.00;102135.34;4973489;28;20487;-71
2022/02/08 02:50:25;;;;;;;9.47;4.60;;;;;;;6.48;100.00;102168.22;4977476;28;20216;-71
2022/02/08 02:52:51;;;;;;;10.13;4.90;;;;;;;6.37;100.00;102159.50;4979380;28;20237;-71
2022/02/08 02:55:17;;;;;;;12.40;5.97;;;;;;;6.45;100.00;102168.50;4977366;28;20480;-71
2022/02/08 02:57:46;;;;;;;12.07;5.30;;;;;;;6.56;100.00;102170.16;4975376;28;20921;-71
2022/02/08 03:00:15;;;;;;;15.13;5.93;;;;;;;6.60;100.00;102166.25;4978091;28;20193;-71
2022/02/08 03:02:53;;;;;;;17.20;5.80;;;;;;;6.52;100.00;102163.44;4978212;28;21825;-71
2022/02/08 03:18:52;;;;;;;10.80;5.90;;;;;;;6.54;100.00;102146.34;4982984;28;20851;-72
2022/02/08 03:21:17;;;;;;;12.17;6.80;;;;;;;6.72;100.00;102143.78;4981546;28;20453;-71
2022/02/08 03:23:43;;;;;;;18.50;6.80;;;;;;;6.70;100.00;102143.09;4977708;28;20217;-71
2022/02/08 03:26:09;;;;;;;17.40;7.20;;;;;;;6.19;100.00;102047.44;4984048;28;20201;-72
2022/02/08 03:28:35;;;;;;;13.57;5.90;;;;;;;6.26;100.00;102069.88;4981765;28;20181;-71
2022/02/08 03:31:01;;;;;;;18.03;7.00;;;;;;;6.96;100.00;102182.50;4982416;28;20189;-72
2022/02/08 03:33:27;;;;;;;16.33;6.70;;;;;;;6.94;100.00;102160.47;4980925;28;20457;-71
2022/02/08 03:35:54;;;;;;;21.20;7.27;;;;;;;6.75;100.00;102122.19;4980663;28;20197;-71
2022/02/08 03:38:35;;;;;;;14.53;7.17;;;;;;;7.08;100.00;102169.84;4981128;28;20461;-71
2022/02/08 03:41:06;;;;;;;19.43;7.50;;;;;;;7.12;100.00;102149.91;4978224;28;20471;-71
2022/02/08 03:43:32;;;;;;;18.87;8.00;;;;;;;7.13;100.00;102140.91;4981376;28;20934;-71
2022/02/08 03:46:04;;;;;;;27.27;7.30;;;;;;;7.16;100.00;102153.97;4978941;28;21004;-72
2022/02/08 03:48:32;;;;;;;27.23;8.30;;;;;;;7.20;100.00;102150.00;4981531;28;20818;-71
2022/02/08 03:51:08;;;;;;;18.47;7.47;;;;;;;7.23;100.00;102153.25;4980195;28;20448;-72
2022/02/08 03:53:35;;;;;;;24.77;8.30;;;;;;;7.27;100.00;102148.47;4979282;28;20545;-71
2022/02/08 03:56:00;;;;;;;20.13;7.73;;;;;;;7.34;100.00;102146.88;4963987;28;20484;-71
2022/02/08 03:58:26;;;;;;;22.20;7.80;;;;;;;7.35;100.00;102151.25;4979028;28;20959;-71
2022/02/08 04:01:22;;;;;;;24.73;8.60;;;;;;;7.11;100.00;102126.88;4977905;28;20205;-71
2022/02/08 04:03:55;;;;;;;16.97;7.03;;;;;;;6.85;100.00;102059.97;4981376;28;20206;-72
2022/02/08 04:06:21;;;;;;;25.37;7.00;;;;;;;7.08;100.00;102087.16;4976946;28;20485;-72
2022/02/08 04:08:46;;;;;;;17.87;7.63;;;;;;;6.96;100.00;102060.63;4979665;28;20468;-72
2022/02/08 04:11:13;;;;;;;25.57;7.50;;;;;;;7.17;100.00;102092.44;4980014;28;20226;-72
2022/02/08 04:13:51;;;;;;;23.50;7.77;;;;;;;7.60;100.00;102159.59;4980138;28;20216;-71
2022/02/08 04:16:30;;;;;;;22.63;8.03;;;;;;;7.46;100.00;102124.38;4981433;28;20842;-72
2022/02/08 04:32:47;;;;;;;14.13;6.30;;;;;;;7.54;100.00;102123.63;4982828;28;20458;-71
2022/02/08 04:35:37;;;;;;;20.70;7.57;;;;;;;7.58;100.00;102122.38;4981894;28;20431;-72
2022/02/08 04:38:04;;;;;;;21.83;7.23;;;;;;;7.46;100.00;102094.16;4978942;28;20582;-72
2022/02/08 04:40:53;;;;;;;18.80;6.20;;;;;;;7.60;100.00;102108.84;4977687;28;20456;-72
2022/02/08 04:43:29;;;;;;;17.77;6.40;;;;;;;7.70;100.00;102150.56;4980265;28;20457;-72
2022/02/08 04:46:28;;;;;;;18.33;6.43;;;;;;;7.47;100.00;102094.03;4977707;28;20485;-71
2022/02/08 04:48:54;;;;;;;21.37;6.70;;;;;;;7.43;100.00;102089.97;4980437;28;20795;-71
2022/02/08 04:51:31;;;;;;;16.00;5.27;;;;;;;7.27;100.00;102048.88;4979727;28;20431;-72
2022/02/08 04:54:08;;;;;;;18.87;5.97;;;;;;;7.40;100.00;102090.25;4976962;28;20451;-72
2022/02/08 04:56:51;;;;;;;16.87;5.77;;;;;;;7.87;100.00;102129.38;4978343;28;20430;-72
2022/02/08 05:35:23;;;;;;;15.70;5.30;;;;;;;8.06;100.00;102147.13;4976508;28;20474;-71
2022/02/08 05:40:44;;;;;;;13.80;4.80;;;;;;;7.91;100.00;102118.22;4972823;28;20448;-72
2022/02/08 05:46:00;;;;;;;17.23;4.70;;;;;;;7.68;100.00;102064.38;4974115;28;20449;-72
2022/02/08 05:48:28;;;;;;;16.07;5.23;;;;;;;7.84;100.00;102084.25;4970549;28;20606;-72
2022/02/08 05:51:04;;;;;;;16.80;4.87;;;;;;;7.97;100.00;102110.63;4972619;28;20441;-72
2022/02/08 05:53:42;;;;;;;15.70;4.90;;;;;;;8.21;100.00;102150.94;4970573;28;20464;-71
2022/02/08 05:56:08;;;;;;;11.57;4.67;;;;;;;7.74;100.00;102067.47;4971692;28;20435;-71
2022/02/08 05:58:34;;;;;;;20.00;5.00;;;;;;;8.26;100.00;102137.97;4972189;28;20472;-72
2022/02/08 06:01:00;;;;;;;15.90;4.40;;;;;;;7.69;100.00;102036.72;4969778;28;20508;-71
2022/02/08 06:03:25;;;;;;;12.63;3.50;;;;;;;8.29;100.00;102143.03;4973062;28;20470;-72
2022/02/08 06:05:51;;;;;;;17.90;4.40;;;;;;;7.85;100.00;102056.56;4974357;28;20669;-73
2022/02/08 06:08:16;;;;;;;11.63;3.70;;;;;;;8.24;100.00;102117.72;4974097;28;20177;-71
2022/02/08 06:10:56;;;;;;;11.50;4.03;;;;;;;8.26;100.00;102113.91;4976826;28;20448;-72
2022/02/08 06:13:22;;;;;;;15.23;4.07;;;;;;;8.32;100.00;102117.81;4974858;28;20260;-71
2022/02/08 06:15:50;;;;;;;13.73;3.70;;;;;;;8.07;100.00;102065.94;4973860;28;21108;-71
2022/02/08 06:18:15;;;;;;;13.83;4.30;;;;;;;7.84;100.00;102033.50;4959274;28;20225;-71
2022/02/08 06:20:41;;;;;;;15.43;3.77;;;;;;;8.35;100.00;102120.19;4972973;28;20531;-72
2022/02/08 06:23:07;;;;;;;19.73;4.00;;;;;;;8.38;100.00;102112.72;4954935;28;20209;-72
2022/02/08 06:25:33;;;;;;;12.80;4.20;;;;;;;8.41;100.00;102110.75;4974925;28;21568;-72
2022/02/08 06:27:58;;;;;;;15.00;3.97;;;;;;;8.32;100.00;102115.16;4959477;28;20197;-72
2022/02/08 06:30:24;;;;;;;12.17;3.33;;;;;;;8.30;100.00;102099.28;5015214;22;20503;-70
2022/02/08 06:32:52;;;;;;;18.70;4.80;;;;;;;8.34;100.00;102105.97;4994855;28;20192;-70
2022/02/08 06:35:24;;;;;;;14.27;3.80;;;;;;;8.45;100.00;102112.13;5011353;28;20254;-70
2022/02/08 06:37:51;;;;;;;14.00;3.50;;;;;;;8.35;100.00;102106.81;5019793;28;20447;-69
2022/02/08 06:40:17;;;;;;;15.07;3.60;;;;;;;8.43;100.00;102106.09;4996205;28;20464;-69
2022/02/08 06:42:43;;;;;;;9.97;2.50;;;;;;;8.27;100.00;102085.34;5003312;28;20439;-70
2022/02/08 06:45:10;;;;;;;9.83;2.70;;;;;;;8.45;100.00;102112.13;4995855;28;20502;-70
2022/02/08 06:47:37;;;;;;;13.37;3.00;;;;;;;8.44;100.00;102102.41;5004059;28;20858;-69
2022/02/08 06:50:05;;;;;;;8.80;2.80;;;;;;;8.49;100.00;102102.81;5001816;28;20879;-70
2022/02/08 06:52:30;;;;;;;10.37;2.67;;;;;;;8.47;100.00;102097.59;4999456;28;20447;-69
2022/02/08 06:54:56;;;;;;;9.90;3.20;;;;;;;8.47;100.00;102083.38;5001362;28;20964;-69
2022/02/08 06:57:21;;;;;;;11.10;2.90;;;;;;;8.52;100.00;102092.63;4997859;28;20200;-69
2022/02/08 06:59:55;;;;;;;14.37;3.00;;;;;;;8.49;100.00;102108.97;4999365;28;20224;-69
2022/02/08 07:02:21;;;;;;;15.13;3.20;;;;;;;8.18;100.00;102049.69;5001261;28;20217;-69
2022/02/08 07:04:47;;;;;;;10.13;2.70;;;;;;;8.34;100.00;102075.75;5000319;28;20443;-70
2022/02/08 07:07:15;;;;;;;6.20;2.13;;;;;;;8.56;100.00;102093.16;5003622;28;20276;-70
2022/02/08 07:09:45;;;;;;;8.97;3.10;;;;;;;8.59;100.00;102091.03;4988044;28;20539;-69
2022/02/08 07:12:10;;;;;;;11.03;2.20;;;;;;;8.61;100.00;102109.59;4995968;28;20535;-69
2022/02/08 07:14:36;;;;;;;10.20;2.63;;;;;;;8.45;100.00;102096.94;4999905;28;20451;-68
2022/02/08 07:17:02;;;;;;;10.37;2.33;;;;;;;8.43;100.00;102080.19;4979808;28;20192;-69
2022/02/08 07:19:27;;;;;;;7.47;2.80;;;;;;;8.58;100.00;102094.69;4982743;28;20217;-69
2022/02/08 07:21:52;;;;;;;9.10;2.23;;;;;;;8.53;100.00;102090.78;4998972;28;20582;-68
2022/02/08 07:24:19;;;;;;;8.10;2.60;;;;;;;8.67;100.00;102103.59;5000552;28;20220;-68
2022/02/08 07:26:46;;;;;;;7.10;1.90;;;;;;;8.50;100.00;102083.06;4999171;28;20247;-69
2022/02/08 07:29:12;;;;;;;11.60;2.40;;;;;;;8.39;100.00;102062.78;5001191;28;21038;-69
2022/02/08 07:31:46;;;;;;;6.87;1.97;;;;;;;8.67;100.00;102111.63;4995766;28;20913;-69
2022/02/08 07:34:22;;;;;;;10.80;2.47;;;;;;;8.18;100.00;102014.09;4996769;28;20474;-69
2022/02/08 07:39:23;;;;;;;9.37;2.13;;;;;;;8.38;100.00;102061.94;5005132;28;20475;-68
2022/02/08 07:41:49;;;;;;;7.67;2.03;;;;;;;8.74;100.00;102098.50;4997908;28;20266;-69
2022/02/08 07:44:14;;;;;;;5.87;1.90;;;;;;;8.72;100.00;102104.00;4996063;28;20443;-69
2022/02/08 07:46:39;;;;;;;9.97;2.10;;;;;;;8.76;100.00;102121.41;4994305;28;20566;-68
2022/02/08 07:49:06;;;;;;;9.73;2.73;;;;;;;8.80;100.00;102111.25;4998529;28;20209;-69
2022/02/08 07:51:33;;;;;;;6.77;2.10;;;;;;;8.80;100.00;102100.53;4994415;28;20847;-68
2022/02/08 07:54:00;;;;;;;10.33;2.30;;;;;;;8.77;100.00;102101.69;4998172;28;20467;-69
2022/02/08 07:56:25;;;;;;;17.60;2.10;;;;;;;8.66;100.00;102087.72;5001529;28;21191;-70
2022/02/08 07:58:51;;;;;;;5.87;2.03;;;;;;;8.80;100.00;102121.94;4999573;28;20472;-68
2022/02/08 08:01:16;;;;;;;9.37;2.43;;;;;;;8.83;100.00;102116.28;5002421;28;20193;-68
2022/02/08 08:03:42;;;;;;;11.03;2.37;;;;;;;8.82;100.00;102101.19;5004179;28;20192;-69
2022/02/08 08:06:12;;;;;;;8.77;2.13;;;;;;;8.83;100.00;102105.59;5004682;28;20243;-69
2022/02/08 08:08:39;;;;;;;9.83;2.63;;;;;;;8.83;100.00;102093.03;5002541;28;20204;-69
2022/02/08 08:11:09;;;;;;;13.20;1.70;;;;;;;8.49;100.00;102041.28;5002213;28;20455;-69
2022/02/08 08:13:41;;;;;;;14.60;2.37;;;;;;;8.75;100.00;102082.28;5001216;28;20932;-68
2022/02/08 08:16:22;;;;;;;4.20;1.83;;;;;;;8.76;100.00;102081.25;5000647;28;21082;-69
2022/02/08 08:19:00;;;;;;;9.40;2.30;;;;;;;8.94;100.00;102088.41;4997818;28;20459;-69
2022/02/08 08:21:26;;;;;;;16.60;2.70;;;;;;;8.95;100.00;102106.16;5001392;28;20944;-69
2022/02/08 08:23:52;;;;;;;11.97;2.67;;;;;;;8.98;100.00;102108.53;5004809;28;20440;-69
2022/02/08 08:26:18;;;;;;;14.93;3.20;;;;;;;8.98;100.00;102105.84;5002371;28;21042;-70
2022/02/08 08:28:43;;;;;;;12.13;2.97;;;;;;;8.92;100.00;102109.16;4998024;28;20659;-69
2022/02/08 08:31:09;;;;;;;15.03;2.20;;;;;;;8.85;100.00;102086.69;5004248;28;20177;-69
2022/02/08 08:33:34;;;;;;;9.00;2.40;;;;;;;9.04;100.00;102116.75;5002506;28;20235;-69
2022/02/08 08:36:00;;;;;;;8.33;1.93;;;;;;;9.05;100.00;102118.44;5005342;28;20654;-69
2022/02/08 08:38:28;;;;;;;8.30;2.17;;;;;;;9.03;100.00;102116.94;5002772;28;20275;-69
2022/02/08 08:41:03;;;;;;;8.90;2.03;;;;;;;9.06;100.00;102127.31;5006738;28;20291;-69
2022/02/08 08:49:04;;;;;;;8.40;2.57;;;;;;;9.04;100.00;102146.19;5000489;28;20426;-68
2022/02/08 08:51:39;;;;;;;12.10;2.30;;;;;;;8.70;100.00;102091.75;5000703;28;20439;-69
2022/02/08 08:54:06;;;;;;;14.47;2.80;;;;;;;8.84;100.00;102123.31;4995960;28;20435;-68
2022/02/08 08:56:32;;;;;;;7.37;2.07;;;;;;;8.90;100.00;102124.50;5001205;28;21134;-69
2022/02/08 08:58:58;;;;;;;11.10;2.43;;;;;;;8.87;100.00;102106.94;4997735;28;20558;-69
2022/02/08 09:01:24;;;;;;;13.40;2.47;;;;;;;8.98;100.00;102129.94;5004475;28;20240;-69
2022/02/08 09:03:49;;;;;;;10.27;2.10;;;;;;;9.04;100.00;102140.84;5003240;28;20192;-69
2022/02/08 09:06:15;;;;;;;10.00;2.17;;;;;;;8.93;100.00;102113.50;5003170;28;20177;-69
2022/02/08 09:08:42;;;;;;;14.40;3.37;;;;;;;8.82;100.00;102099.41;5002115;28;20193;-69
2022/02/08 09:11:15;;;;;;;13.30;2.80;;;;;;;9.06;100.00;102138.03;5000245;28;20200;-69
2022/02/08 09:13:48;;;;;;;8.20;1.90;;;;;;;9.04;100.00;102132.81;4994863;28;20490;-69
2022/02/08 09:30:04;;;;;;;10.60;2.80;;;;;;;8.99;100.00;102143.13;4998464;28;20463;-69
2022/02/08 09:35:09;;;;;;;8.97;2.53;;;;;;;8.99;100.00;102144.97;4998741;28;20447;-68
2022/02/08 09:37:36;;;;;;;10.30;2.10;;;;;;;8.86;100.00;102120.47;4999065;28;20442;-69
2022/02/08 09:40:04;;;;;;;14.87;3.00;;;;;;;9.08;100.00;102146.72;4998220;28;21050;-69
2022/02/08 09:42:29;;;;;;;8.10;2.30;;;;;;;8.96;100.00;102139.94;5000653;28;20440;-68
2022/02/08 09:44:55;;;;;;;11.23;2.37;;;;;;;9.11;100.00;102162.44;4999701;28;20558;-69
2022/02/08 09:47:32;;;;;;;10.57;2.67;;;;;;;9.09;100.00;102159.13;4980727;28;20743;-68
2022/02/08 09:50:06;;;;;;;12.37;2.40;;;;;;;9.10;100.00;102173.34;4998155;28;20823;-70
2022/02/08 09:52:32;;;;;;;14.50;2.33;;;;;;;9.13;100.00;102173.03;5003085;28;20454;-68
2022/02/08 09:54:58;;;;;;;9.67;2.33;;;;;;;9.00;100.00;102144.84;5002689;28;20436;-68
2022/02/08 09:57:23;;;;;;;12.37;2.87;;;;;;;9.09;100.00;102158.28;4968551;28;20189;-69
2022/02/08 09:59:49;;;;;;;12.60;2.10;;;;;;;9.12;100.00;102158.81;4991992;28;20300;-69
2022/02/08 10:02:19;;;;;;;11.43;2.70;;;;;;;8.97;100.00;102134.44;4996550;28;20235;-68
2022/02/08 10:04:44;;;;;;;12.13;2.57;;;;;;;8.71;100.00;102088.94;4999358;28;20454;-69
2022/02/08 10:07:11;;;;;;;11.00;2.63;;;;;;;9.19;100.00;102178.56;5001614;28;20444;-69
2022/02/08 10:09:37;;;;;;;11.97;2.43;;;;;;;9.21;100.00;102178.44;4998752;28;20315;-69
2022/02/08 10:12:03;;;;;;;13.83;2.57;;;;;;;9.18;100.00;102160.84;4983390;28;20543;-69
2022/02/08 10:22:31;;;;;;;12.73;2.57;;;;;;;9.29;100.00;102181.16;4998325;28;20452;-69
2022/02/08 10:25:01;;;;;;;8.00;2.10;;;;;;;9.33;100.00;102179.00;4997800;28;20470;-69
2022/02/08 10:27:39;;;;;;;14.87;2.37;;;;;;;9.31;100.00;102179.16;4996521;28;20432;-68
2022/02/08 10:31:22;;;;;;;10.50;2.77;;;;;;;9.33;100.00;102182.53;4996962;28;20922;-68
2022/02/08 10:38:47;;;;;;;10.70;2.50;;;;;;;9.25;100.00;102174.44;4999195;28;20505;-69
2022/02/08 10:41:21;;;;;;;9.80;2.80;;;;;;;9.36;100.00;102182.22;4997158;28;20507;-68
2022/02/08 10:44:02;;;;;;;7.90;2.33;;;;;;;9.38;100.00;102192.78;5002559;28;20523;-68
2022/02/08 10:46:28;;;;;;;11.40;2.40;;;;;;;9.32;100.00;102180.84;4999580;28;20466;-69
2022/02/08 10:49:03;;;;;;;11.63;2.63;;;;;;;9.42;100.00;102191.44;4995684;28;20940;-69
2022/02/08 10:51:31;;;;;;;14.73;3.53;;;;;;;9.40;100.00;102188.94;4991751;28;20448;-69
2022/02/08 10:54:03;;;;;;;6.30;1.70;;;;;;;9.38;100.00;102206.16;4990288;28;20444;-67
2022/02/08 10:56:32;;;;;;;9.90;2.60;;;;;;;9.41;100.00;102195.97;4995297;28;20432;-68
2022/02/08 11:01:53;;;;;;;11.90;2.73;;;;;;;9.32;100.00;102182.69;4994260;28;20442;-70
2022/02/08 11:04:31;;;;;;;12.20;2.63;;;;;;;9.13;100.00;102146.25;4996400;28;20439;-69
2022/02/08 11:07:14;;;;;;;16.37;2.63;;;;;;;9.42;100.00;102196.81;4998222;28;20431;-70
2022/02/08 11:09:55;;;;;;;12.73;2.80;;;;;;;9.17;100.00;102161.00;5000182;28;20486;-70
2022/02/08 11:15:39;;;;;;;13.33;3.03;;;;;;;9.23;100.00;102182.63;5000531;28;20506;-70
2022/02/08 11:20:53;;;;;;;12.90;3.37;;;;;;;8.76;100.00;102096.47;4998530;28;20495;-69
2022/02/08 11:23:33;;;;;;;19.57;3.17;;;;;;;9.39;100.00;102203.31;5000535;28;21018;-69
2022/02/08 11:26:00;;;;;;;10.93;2.53;;;;;;;9.34;100.00;102196.75;4999159;28;20439;-70
2022/02/08 11:28:40;;;;;;;10.33;2.40;;;;;;;9.42;100.00;102212.88;5001083;28;20455;-70
2022/02/08 11:39:45;;;;;;;16.93;3.27;;;;;;;9.48;100.00;102210.41;5001273;28;20564;-70
2022/02/08 11:50:44;;;;;;;12.40;2.47;;;;;;;9.46;100.00;102204.38;4995648;28;20456;-69
2022/02/08 11:56:03;;;;;;;11.57;2.53;;;;;;;9.47;100.00;102202.53;5000195;28;20963;-70
2022/02/08 11:58:35;;;;;;;13.83;2.53;;;;;;;9.36;100.00;102189.41;5001482;28;20456;-70
2022/02/08 12:01:07;;;;;;;9.23;2.70;;;;;;;9.52;100.00;102210.94;4993781;28;20446;-69
2022/02/08 12:04:15;;;;;;;7.20;2.67;;;;;;;9.53;100.00;102226.00;5002047;28;20447;-69
2022/02/08 12:06:50;;;;;;;12.60;3.70;;;;;;;9.53;100.00;102215.28;5001647;28;20425;-68
2022/02/08 12:12:58;;;;;;;19.07;2.90;;;;;;;9.56;100.00;102231.03;5006146;28;20568;-70
2022/02/08 14:01:31;;;;;;;17.57;3.00;;;;;;;8.99;100.00;102252.88;4976729;28;20471;-79
2022/02/08 14:23:28;;;;;;;11.20;3.07;;;;;;;8.68;100.00;102227.47;4979993;28;20237;-81
2022/02/08 15:08:38;;;;;;;17.70;2.93;;;;;;;8.10;100.00;102218.84;4982190;28;20449;-81
2022/02/08 15:11:09;;;;;;;11.43;2.40;;;;;;;8.65;100.00;102310.72;4981289;28;20205;-78
2022/02/08 15:13:36;;;;;;;17.30;3.17;;;;;;;8.14;100.00;102217.53;4984534;28;20490;-81
2022/02/08 15:16:36;;;;;;;12.00;2.60;;;;;;;8.81;100.00;102318.94;4983503;28;20444;-91
2022/02/08 15:18:57;;;;;;;15.50;3.00;;;;;;;8.67;100.00;102298.03;4988913;28;20470;-88
2022/02/08 15:21:30;;;;;;;13.33;2.90;;;;;;;8.78;100.00;102321.91;4969822;28;20448;-90
2022/02/08 15:23:56;;;;;;;10.10;2.57;;;;;;;8.41;100.00;102244.44;4988999;28;20484;-87
2022/02/08 15:26:21;;;;;;;9.03;1.90;;;;;;;8.60;100.00;102295.97;4964918;28;20902;-86
2022/02/08 15:28:47;;;;;;;8.23;2.90;;;;;;;8.51;100.00;102282.66;4966112;28;20244;-89
2022/02/08 15:31:14;;;;;;;8.70;2.57;;;;;;;8.82;100.00;102345.53;4963425;28;20216;-87
2022/02/08 15:33:39;;;;;;;11.47;2.20;;;;;;;8.79;100.00;102331.59;4968163;28;20445;-89
2022/02/08 15:36:05;;;;;;;13.17;2.70;;;;;;;7.79;100.00;102169.34;4989348;28;20833;-89
2022/02/08 15:38:33;;;;;;;13.10;2.53;;;;;;;8.63;100.00;102305.53;4974087;28;20999;-88
2022/02/08 15:41:00;;;;;;;11.10;2.63;;;;;;;8.83;100.00;102338.34;4972798;28;20492;-88
2022/02/08 15:43:27;;;;;;;15.23;3.00;;;;;;;8.82;100.00;102342.88;4973626;28;20444;-92
2022/02/08 15:46:02;;;;;;;13.50;3.43;;;;;;;8.83;100.00;102347.22;4985190;28;20920;-88
2022/02/08 15:48:28;;;;;;;12.03;3.40;;;;;;;8.55;100.00;102302.75;4974438;28;20430;-93
2022/02/08 15:51:04;;;;;;;15.10;3.83;;;;;;;8.22;100.00;102264.91;4972683;28;20538;-90
2022/02/08 16:00:06;;;;;;;10.17;2.77;;;;;;;8.35;100.00;102273.41;4991299;28;20185;-87
2022/02/08 16:01:26;;;;;;;10.23;2.93;;;;;;;7.85;100.00;102196.31;4994766;28;20472;-85
2022/02/08 16:06:55;;;;;;;9.70;2.50;;;;;;;8.81;100.00;102337.66;4988783;28;20790;-90
2022/02/08 16:09:45;;;;;;;10.70;3.00;;;;;;;8.75;100.00;102357.00;4972473;28;20452;-90
2022/02/08 16:12:39;;;;;;;10.00;3.00;;;;;;;8.76;100.00;102346.13;4986207;28;20432;-91
2022/02/08 16:15:14;;;;;;;15.87;3.50;;;;;;;8.69;100.00;102329.00;4982466;28;20457;-90
2022/02/08 16:20:45;;;;;;;10.50;2.33;;;;;;;8.72;100.00;102335.88;4981701;28;20546;-92
2022/02/08 16:28:22;;;;;;;13.27;4.23;;;;;;;7.79;100.00;102177.38;4979351;28;21085;-82
2022/02/08 16:48:47;;;;;;;9.17;2.90;;;;;;;8.67;100.00;102314.09;4978994;28;20452;-82
2022/02/08 16:55:24;;;;;;;15.97;3.67;;;;;;;8.27;100.00;102281.31;4981209;28;20441;-82
2022/02/08 16:58:27;;;;;;;10.13;3.20;;;;;;;8.79;100.00;102361.91;4979940;28;20190;-81
2022/02/08 17:00:44;;;;;;;11.97;3.90;;;;;;;8.74;100.00;102344.63;4973462;28;20460;-80
2022/02/08 17:03:10;;;;;;;12.83;3.17;;;;;;;8.03;100.00;102222.25;4982331;28;20452;-82
2022/02/08 17:05:36;;;;;;;16.27;3.37;;;;;;;6.80;100.00;102033.75;4979686;28;20437;-82
2022/02/08 17:08:01;;;;;;;12.60;3.00;;;;;;;8.76;100.00;102354.16;4983445;28;20348;-83
2022/02/08 17:49:55;;;;;;;13.67;2.90;;;;;;;8.34;100.00;102308.31;4978967;28;20996;-78
2022/02/08 17:52:20;;;;;;;10.13;3.13;;;;;;;7.58;100.00;102197.13;4971204;28;20193;-77
2022/02/08 17:54:46;;;;;;;11.93;3.37;;;;;;;7.64;100.00;102179.69;4978796;28;20444;-80
2022/02/08 17:57:13;;;;;;;14.30;3.77;;;;;;;8.37;100.00;102332.94;4963714;28;20185;-79
2022/02/08 17:59:39;;;;;;;17.43;4.43;;;;;;;8.29;100.00;102319.47;4982290;28;20209;-92
2022/02/08 18:02:06;;;;;;;15.73;3.77;;;;;;;8.45;100.00;102336.75;4959238;28;20460;-81
2022/02/08 18:04:32;;;;;;;12.80;3.33;;;;;;;8.70;100.00;102373.47;4959304;28;20781;-77
2022/02/08 18:06:59;;;;;;;12.27;4.03;;;;;;;6.57;100.00;102038.56;4973371;28;20441;-79
2022/02/08 18:09:26;;;;;;;9.70;3.17;;;;;;;8.69;100.00;102371.81;4978106;28;20482;-87